Time;durP1;ratioP1;P1;durP2;ratioP2;P2;SDS_P1;SDS_P2;PMS_P1;PMS_P2;Temp;Humidity;BMP_temperature;BMP_pressure;BME280_temperature;BME280_humidity;BME280_pressure;Samples;Min_cycle;Max_cycle;Signal;HPM_P1;HPM_P2
2022/05/19 00:01:59;;;;;;;4.30;3.08;;;19.00;90.30;;;;;;5064414;28;20045;-80
2022/05/19 00:04:26;;;;;;;6.68;3.00;;;18.90;90.30;;;;;;5066890;28;20113;-83
2022/05/19 00:06:51;;;;;;;8.98;3.05;;;18.90;90.50;;;;;;5065993;28;20036;-81
2022/05/19 00:09:18;;;;;;;4.05;2.70;;;18.80;90.40;;;;;;5066728;28;20037;-79
2022/05/19 00:11:45;;;;;;;7.22;3.10;;;18.80;90.50;;;;;;5068698;28;20028;-81
2022/05/19 00:14:11;;;;;;;3.85;2.78;;;18.80;90.50;;;;;;5068539;28;20048;-80
2022/05/19 00:16:37;;;;;;;3.15;2.78;;;18.70;90.50;;;;;;5066617;28;20082;-83
2022/05/19 00:19:03;;;;;;;5.22;2.97;;;18.70;90.60;;;;;;5067285;28;20036;-80
2022/05/19 00:21:29;;;;;;;5.80;3.20;;;18.70;91.00;;;;;;5068324;28;20033;-81
2022/05/19 00:23:54;;;;;;;3.72;2.80;;;18.60;90.80;;;;;;5068506;28;20032;-80
2022/05/19 00:26:20;;;;;;;4.63;3.05;;;18.60;90.80;;;;;;5067082;28;20040;-82
2022/05/19 00:28:46;;;;;;;5.90;2.80;;;18.60;90.90;;;;;;5069044;28;20075;-82
2022/05/19 00:31:12;;;;;;;3.33;2.70;;;18.50;91.00;;;;;;5066541;28;20425;-82
2022/05/19 00:33:37;;;;;;;4.30;3.50;;;18.50;91.00;;;;;;5066910;28;20103;-81
2022/05/19 00:36:08;;;;;;;4.03;2.55;;;18.50;91.00;;;;;;5066760;28;20028;-81
2022/05/19 00:38:34;;;;;;;4.38;3.13;;;18.50;91.00;;;;;;5067806;28;20021;-82
2022/05/19 00:40:59;;;;;;;5.30;2.97;;;18.40;91.00;;;;;;5067090;28;20062;-80
2022/05/19 00:43:31;;;;;;;7.53;3.33;;;18.40;91.10;;;;;;5071567;28;20037;-81
2022/05/19 00:46:05;;;;;;;5.78;3.13;;;18.40;91.10;;;;;;5075669;28;20024;-80
2022/05/19 00:48:47;;;;;;;3.55;2.72;;;18.40;91.20;;;;;;5075735;28;20074;-81
2022/05/19 00:51:15;;;;;;;6.03;2.95;;;18.40;91.10;;;;;;5085659;28;20430;-80
2022/05/19 00:53:49;;;;;;;4.25;3.05;;;18.40;91.20;;;;;;5069122;28;20430;-79
2022/05/19 00:56:29;;;;;;;6.00;3.08;;;18.40;91.30;;;;;;5068207;28;20025;-82
2022/05/19 00:59:06;;;;;;;4.47;2.83;;;18.30;91.30;;;;;;5069698;28;20036;-79
2022/05/19 01:01:39;;;;;;;6.20;3.70;;;18.30;91.20;;;;;;5068855;28;20421;-80
2022/05/19 01:04:16;;;;;;;;;;;18.30;91.40;;;;;;5068933;28;20056;-81
2022/05/19 01:06:44;;;;;;;4.25;3.15;;;18.30;91.40;;;;;;5065921;28;19912;-84
2022/05/19 01:09:13;;;;;;;5.10;3.75;;;18.20;91.30;;;;;;5067696;28;20364;-80
2022/05/19 01:11:39;;;;;;;3.67;3.05;;;18.20;91.30;;;;;;5068384;28;20094;-82
2022/05/19 01:14:06;;;;;;;8.93;3.03;;;18.20;91.40;;;;;;5067105;28;20073;-81
2022/05/19 01:16:32;;;;;;;5.82;2.70;;;18.20;91.40;;;;;;5066790;28;20067;-83
2022/05/19 01:18:58;;;;;;;3.75;2.70;;;18.20;91.50;;;;;;5067588;28;20068;-80
2022/05/19 01:21:28;;;;;;;3.55;2.83;;;18.20;91.50;;;;;;5064834;28;20111;-80
2022/05/19 01:24:05;;;;;;;4.97;2.67;;;18.20;91.50;;;;;;5068783;28;20547;-83
2022/05/19 01:26:40;;;;;;;5.45;2.70;;;18.10;91.50;;;;;;5073716;28;20114;-86
2022/05/19 01:29:06;;;;;;;3.72;2.65;;;18.10;91.60;;;;;;5070445;28;20040;-83
2022/05/19 01:31:57;;;;;;;3.95;3.00;;;18.10;91.60;;;;;;5070193;28;20086;-82
2022/05/19 01:34:29;;;;;;;3.38;2.47;;;18.00;91.70;;;;;;5070400;28;20032;-83
2022/05/19 01:36:55;;;;;;;4.90;2.58;;;18.00;91.70;;;;;;5073585;28;20114;-81
2022/05/19 01:39:26;;;;;;;4.03;2.55;;;18.00;91.90;;;;;;5072488;28;20040;-80
2022/05/19 01:42:12;;;;;;;10.55;2.90;;;17.90;91.80;;;;;;5071559;28;20040;-81
2022/05/19 01:44:55;;;;;;;4.88;2.67;;;17.90;91.90;;;;;;5071824;28;20033;-81
2022/05/19 01:47:34;;;;;;;3.75;3.15;;;17.90;92.00;;;;;;5067718;28;20303;-80
2022/05/19 01:50:32;;;;;;;3.70;2.60;;;17.80;92.20;;;;;;5071778;28;20047;-82
2022/05/19 01:53:07;;;;;;;4.68;2.80;;;17.80;92.20;;;;;;5062149;28;20031;-82
2022/05/19 01:56:06;;;;;;;4.13;3.17;;;17.70;92.30;;;;;;5064449;28;20025;-79
2022/05/19 01:59:01;;;;;;;4.57;3.00;;;17.70;92.50;;;;;;5066482;28;20032;-80
2022/05/19 02:01:27;;;;;;;6.53;3.45;;;17.70;92.60;;;;;;5068144;28;20037;-83
2022/05/19 02:04:19;;;;;;;4.90;3.10;;;17.60;92.70;;;;;;5070820;28;20389;-82
2022/05/19 02:06:50;;;;;;;4.65;3.20;;;17.60;92.80;;;;;;5069115;28;20028;-83
2022/05/19 02:09:34;;;;;;;4.63;3.10;;;17.60;92.80;;;;;;5071870;28;20048;-81
2022/05/19 02:12:01;;;;;;;3.85;2.88;;;17.50;93.00;;;;;;5071830;28;20056;-80
2022/05/19 02:14:46;;;;;;;4.45;2.75;;;17.50;93.00;;;;;;5072473;28;20043;-80
2022/05/19 02:17:17;;;;;;;4.93;2.97;;;17.50;93.10;;;;;;5069164;28;20035;-80
2022/05/19 02:19:48;;;;;;;3.47;3.08;;;17.40;93.10;;;;;;5071485;28;20024;-82
2022/05/19 02:22:17;;;;;;;9.27;2.88;;;17.40;93.40;;;;;;5069659;28;20051;-81
2022/05/19 02:24:49;;;;;;;3.42;3.05;;;17.40;93.40;;;;;;5070569;28;20028;-79
2022/05/19 02:27:52;;;;;;;5.28;3.53;;;17.40;93.50;;;;;;5070367;28;20035;-79
2022/05/19 02:30:24;;;;;;;5.80;2.85;;;17.30;93.60;;;;;;5069197;28;20082;-81
2022/05/19 02:32:50;;;;;;;3.88;2.95;;;17.30;93.60;;;;;;5071039;28;20090;-81
2022/05/19 02:35:16;;;;;;;3.95;2.58;;;17.30;93.80;;;;;;5068035;28;20079;-79
2022/05/19 02:37:42;;;;;;;4.22;3.03;;;17.30;93.80;;;;;;5067537;28;20506;-81
2022/05/19 02:40:09;;;;;;;4.22;2.85;;;17.20;93.90;;;;;;5068645;28;20021;-79
2022/05/19 02:42:34;;;;;;;6.85;2.97;;;17.20;93.90;;;;;;5069113;28;20090;-80
2022/05/19 02:45:00;;;;;;;4.95;3.50;;;17.20;93.90;;;;;;5069501;28;20036;-82
2022/05/19 02:47:25;;;;;;;4.05;3.25;;;17.10;94.00;;;;;;5068461;28;20037;-78
2022/05/19 02:49:51;;;;;;;3.42;3.05;;;17.10;94.10;;;;;;5070370;28;20051;-83
2022/05/19 02:52:16;;;;;;;6.82;3.25;;;17.10;94.10;;;;;;5070799;28;20437;-81
2022/05/19 02:54:42;;;;;;;5.95;2.88;;;17.10;94.10;;;;;;5060289;28;20478;-80
2022/05/19 02:57:07;;;;;;;5.13;3.28;;;17.00;94.10;;;;;;5062479;28;20032;-79
2022/05/19 02:59:33;;;;;;;3.38;2.63;;;17.00;94.20;;;;;;5061146;28;20047;-80
2022/05/19 03:01:59;;;;;;;5.00;2.83;;;17.00;94.40;;;;;;5060978;28;20028;-79
2022/05/19 03:04:24;;;;;;;3.38;3.05;;;17.00;94.40;;;;;;5064198;28;20033;-84
2022/05/19 03:06:49;;;;;;;4.43;3.28;;;16.90;94.40;;;;;;5061034;28;20029;-83
2022/05/19 03:09:15;;;;;;;5.53;3.10;;;16.90;94.50;;;;;;5061402;28;20037;-81
2022/05/19 03:11:40;;;;;;;3.90;3.03;;;16.90;94.50;;;;;;5062228;28;20035;-80
2022/05/19 03:14:06;;;;;;;3.80;3.22;;;16.90;94.40;;;;;;5061762;28;20024;-82
2022/05/19 03:16:32;;;;;;;5.78;3.15;;;16.80;94.40;;;;;;5064792;28;20494;-81
2022/05/19 03:18:57;;;;;;;5.30;3.28;;;16.80;94.40;;;;;;5085794;28;20033;-80
2022/05/19 03:21:23;;;;;;;4.25;3.45;;;16.80;94.40;;;;;;5064647;28;20413;-80
2022/05/19 03:23:48;;;;;;;5.53;3.75;;;16.80;94.60;;;;;;5060346;28;20131;-79
2022/05/19 03:26:13;;;;;;;5.15;3.38;;;16.80;94.70;;;;;;5059988;28;20063;-80
2022/05/19 03:28:39;;;;;;;7.38;3.63;;;16.80;94.80;;;;;;5077142;28;20066;-82
2022/05/19 03:31:04;;;;;;;5.15;3.50;;;16.80;94.90;;;;;;5061137;28;20041;-83
2022/05/19 03:33:30;;;;;;;3.65;2.90;;;16.80;94.90;;;;;;5062947;28;20048;-80
2022/05/19 03:36:00;;;;;;;4.35;3.05;;;16.70;94.90;;;;;;5061924;28;20028;-83
2022/05/19 03:38:26;;;;;;;4.55;2.97;;;16.70;95.00;;;;;;5061753;28;20033;-80
2022/05/19 03:40:52;;;;;;;4.07;3.47;;;16.70;95.00;;;;;;5060015;28;20040;-80
2022/05/19 03:43:17;;;;;;;4.70;2.95;;;16.70;95.00;;;;;;5062677;28;20082;-85
2022/05/19 03:45:43;;;;;;;3.45;2.97;;;16.70;95.00;;;;;;5061676;28;20032;-81
2022/05/19 03:48:09;;;;;;;6.15;3.78;;;16.70;95.00;;;;;;5069990;28;20554;-80
2022/05/19 03:50:35;;;;;;;4.38;3.85;;;16.70;95.10;;;;;;5067785;28;20028;-81
2022/05/19 03:53:00;;;;;;;4.07;2.90;;;16.60;95.00;;;;;;5064816;28;20137;-81
2022/05/19 03:55:26;;;;;;;3.80;3.40;;;16.70;95.00;;;;;;5067011;28;20032;-79
2022/05/19 03:57:52;;;;;;;7.10;3.00;;;16.70;95.00;;;;;;5064687;28;20028;-80
2022/05/19 04:00:18;;;;;;;7.38;3.67;;;16.70;95.00;;;;;;5067388;28;20108;-80
2022/05/19 04:02:45;;;;;;;4.20;3.53;;;16.70;95.10;;;;;;5066975;28;20078;-81
2022/05/19 04:05:13;;;;;;;7.38;3.58;;;16.70;95.10;;;;;;5065595;28;20032;-80
2022/05/19 04:07:39;;;;;;;3.60;3.30;;;16.70;95.10;;;;;;5070472;28;20029;-83
2022/05/19 04:10:06;;;;;;;3.90;2.85;;;16.70;95.10;;;;;;5065475;28;20111;-81
2022/05/19 04:12:32;;;;;;;3.97;2.83;;;16.70;95.10;;;;;;5066728;28;20397;-81
2022/05/19 04:14:57;;;;;;;4.43;3.45;;;16.70;95.00;;;;;;5067995;28;20025;-80
2022/05/19 04:17:23;;;;;;;3.63;3.03;;;16.80;95.00;;;;;;5067566;28;20051;-80
2022/05/19 04:19:48;;;;;;;4.28;3.10;;;16.80;95.10;;;;;;5063479;28;20036;-83
2022/05/19 04:22:14;;;;;;;7.28;3.17;;;16.80;95.00;;;;;;5054192;28;20025;-79
2022/05/19 04:24:39;;;;;;;3.47;2.88;;;16.80;94.90;;;;;;5067736;28;20111;-80
2022/05/19 04:27:05;;;;;;;3.30;3.00;;;16.90;94.90;;;;;;5068572;28;20039;-80
2022/05/19 04:29:31;;;;;;;3.95;3.45;;;16.90;94.70;;;;;;5067554;28;20087;-85
2022/05/19 04:31:56;;;;;;;3.05;2.58;;;16.90;94.70;;;;;;5068841;28;20498;-85
2022/05/19 04:34:22;;;;;;;3.22;2.92;;;17.00;94.60;;;;;;5066213;28;20098;-78
2022/05/19 04:36:47;;;;;;;4.07;3.22;;;17.00;94.50;;;;;;5063268;28;20037;-81
2022/05/19 04:39:14;;;;;;;4.18;2.63;;;17.00;94.70;;;;;;5068574;28;20029;-85
2022/05/19 04:41:39;;;;;;;3.75;3.42;;;17.10;94.40;;;;;;5068582;28;20020;-81
2022/05/19 04:44:05;;;;;;;5.28;2.97;;;17.10;94.40;;;;;;5065036;28;20107;-80
2022/05/19 04:46:31;;;;;;;4.25;3.22;;;17.20;94.30;;;;;;5066581;28;20090;-81
2022/05/19 04:48:56;;;;;;;5.68;3.45;;;17.20;94.20;;;;;;5066779;28;20486;-82
2022/05/19 04:51:22;;;;;;;2.92;2.60;;;17.30;94.20;;;;;;5064475;28;20191;-82
2022/05/19 04:53:48;;;;;;;3.70;2.67;;;17.30;94.10;;;;;;5065338;28;20028;-80
2022/05/19 04:56:13;;;;;;;4.95;3.30;;;17.40;94.00;;;;;;5063720;28;20145;-83
2022/05/19 04:58:39;;;;;;;4.43;3.00;;;17.50;94.10;;;;;;5060891;28;20485;-81
2022/05/19 05:01:05;;;;;;;7.32;2.80;;;17.50;93.80;;;;;;5052748;28;20036;-83
2022/05/19 05:03:31;;;;;;;3.75;2.58;;;17.60;93.80;;;;;;5062122;28;20051;-81
2022/05/19 05:05:56;;;;;;;2.60;2.40;;;17.70;93.60;;;;;;5069914;28;20394;-79
2022/05/19 05:08:22;;;;;;;5.80;2.70;;;17.70;93.20;;;;;;5070670;28;20067;-81
2022/05/19 05:10:47;;;;;;;7.20;2.25;;;17.90;93.20;;;;;;5071009;28;20483;-82
2022/05/19 05:13:15;;;;;;;6.00;2.75;;;17.90;92.70;;;;;;5072646;28;20047;-79
2022/05/19 05:15:42;;;;;;;6.40;2.47;;;18.00;92.50;;;;;;5071850;28;20036;-82
2022/05/19 05:18:08;;;;;;;3.38;2.15;;;18.20;92.30;;;;;;5070494;28;20481;-82
2022/05/19 05:20:36;;;;;;;3.83;2.58;;;18.20;92.20;;;;;;5070473;28;20029;-82
2022/05/19 05:23:02;;;;;;;3.13;2.15;;;18.30;91.80;;;;;;5078358;28;20612;-81
2022/05/19 05:25:29;;;;;;;3.67;2.17;;;18.50;91.50;;;;;;5069820;28;20116;-84
2022/05/19 05:27:57;;;;;;;2.53;2.10;;;18.60;91.00;;;;;;5060101;28;20099;-80
2022/05/19 05:30:23;;;;;;;6.78;1.90;;;18.70;90.70;;;;;;5062420;28;20462;-82
2022/05/19 05:32:49;;;;;;;3.33;1.73;;;18.80;90.40;;;;;;5063137;28;20386;-81
2022/05/19 05:35:15;;;;;;;3.05;1.75;;;18.90;89.10;;;;;;5065970;28;20024;-83
2022/05/19 05:37:41;;;;;;;7.07;2.03;;;19.00;89.40;;;;;;5068292;28;20071;-81
2022/05/19 05:40:08;;;;;;;4.30;1.65;;;19.10;89.90;;;;;;5068845;28;20033;-81
2022/05/19 05:42:34;;;;;;;5.85;2.40;;;19.20;89.00;;;;;;5070698;28;20498;-81
2022/05/19 05:45:00;;;;;;;3.58;1.60;;;19.30;89.40;;;;;;5064106;28;20024;-82
2022/05/19 05:47:26;;;;;;;4.38;1.50;;;19.50;89.10;;;;;;5064232;28;20033;-85
2022/05/19 05:49:51;;;;;;;3.95;1.95;;;19.50;88.20;;;;;;5064367;28;20047;-82
2022/05/19 05:52:17;;;;;;;3.38;1.67;;;19.60;87.70;;;;;;5065064;28;20021;-80
2022/05/19 05:54:42;;;;;;;4.53;3.05;;;19.70;87.40;;;;;;5067815;28;20037;-80
2022/05/19 05:57:08;;;;;;;4.38;1.40;;;19.70;87.00;;;;;;5083333;28;20043;-81
2022/05/19 05:59:33;;;;;;;4.32;1.77;;;19.80;87.10;;;;;;5065125;28;20028;-80
2022/05/19 06:01:59;;;;;;;2.70;1.58;;;19.90;85.40;;;;;;5068524;28;20032;-80
2022/05/19 06:04:24;;;;;;;5.90;2.28;;;20.00;85.90;;;;;;5068967;28;20029;-82
2022/05/19 06:06:50;;;;;;;5.38;1.67;;;20.00;86.10;;;;;;5058108;28;20075;-82
2022/05/19 06:09:16;;;;;;;6.13;2.25;;;20.10;85.70;;;;;;5068724;28;20572;-81
2022/05/19 06:11:42;;;;;;;5.88;1.80;;;20.20;84.70;;;;;;5067675;28;20041;-83
2022/05/19 06:14:08;;;;;;;4.25;1.80;;;20.30;83.80;;;;;;5067120;28;20635;-83
2022/05/19 06:16:33;;;;;;;3.10;1.60;;;20.30;84.70;;;;;;5063906;28;20027;-79
2022/05/19 06:18:59;;;;;;;3.15;1.67;;;20.40;84.60;;;;;;5062932;28;20036;-80
2022/05/19 06:21:25;;;;;;;1.98;1.40;;;20.50;83.90;;;;;;5063304;28;20450;-84
2022/05/19 06:23:50;;;;;;;3.42;1.77;;;20.50;83.30;;;;;;5066188;28;20028;-79
2022/05/19 06:26:16;;;;;;;6.75;1.73;;;20.60;83.50;;;;;;5068722;28;20656;-80
2022/05/19 06:28:41;;;;;;;2.83;1.55;;;20.60;83.60;;;;;;5067368;28;20033;-80
2022/05/19 06:31:07;;;;;;;2.53;1.42;;;20.70;82.50;;;;;;5067573;28;20025;-80
2022/05/19 06:33:35;;;;;;;2.63;1.58;;;20.80;83.50;;;;;;5070717;28;20078;-81
2022/05/19 06:36:02;;;;;;;5.03;1.83;;;20.80;83.50;;;;;;5068697;28;20518;-80
2022/05/19 06:38:28;;;;;;;5.32;2.45;;;20.90;81.60;;;;;;5066965;28;20032;-80
2022/05/19 06:42:00;;;;;;;3.20;1.50;;;21.00;81.70;;;;;;5066946;28;20489;-80
2022/05/19 06:43:39;;;;;;;3.38;1.35;;;21.10;82.20;;;;;;5067268;28;20538;-81
2022/05/19 06:46:04;;;;;;;4.65;1.88;;;21.20;81.30;;;;;;5063510;28;20029;-82
2022/05/19 06:48:30;;;;;;;6.72;2.13;;;21.30;81.60;;;;;;5068050;28;20044;-80
2022/05/19 06:50:55;;;;;;;5.45;1.60;;;21.40;82.40;;;;;;5063021;28;20517;-80
2022/05/19 06:53:21;;;;;;;4.95;1.45;;;21.40;81.80;;;;;;5066615;28;20031;-81
2022/05/19 06:55:46;;;;;;;2.55;1.40;;;21.50;81.10;;;;;;5068934;28;20028;-81
2022/05/19 06:58:12;;;;;;;1.88;1.27;;;21.60;81.50;;;;;;5069598;28;20536;-84
2022/05/19 07:00:37;;;;;;;2.47;1.33;;;21.60;81.00;;;;;;5066422;28;20123;-84
2022/05/19 07:03:03;;;;;;;2.42;1.55;;;21.80;79.60;;;;;;5070756;28;20064;-80
2022/05/19 07:05:32;;;;;;;2.75;1.58;;;21.80;80.50;;;;;;5070692;28;20418;-80
2022/05/19 07:07:57;;;;;;;1.70;1.20;;;22.00;80.80;;;;;;5071102;28;20025;-81
2022/05/19 07:10:26;;;;;;;6.30;1.42;;;22.10;78.50;;;;;;5070020;28;20372;-81
2022/05/19 07:12:52;;;;;;;1.83;1.10;;;22.10;78.20;;;;;;5071839;28;20028;-83
2022/05/19 07:15:30;;;;;;;2.13;1.33;;;22.20;78.40;;;;;;5071880;28;20080;-80
2022/05/19 07:17:56;;;;;;;1.80;1.48;;;22.30;77.70;;;;;;5068338;28;20021;-84
2022/05/19 07:23:08;;;;;;;1.85;1.20;;;22.60;75.70;;;;;;5070318;28;20039;-85
2022/05/19 07:25:33;;;;;;;2.45;1.45;;;22.70;75.80;;;;;;5065424;28;20029;-80
2022/05/19 07:27:59;;;;;;;4.60;1.30;;;22.90;76.40;;;;;;5064579;28;20055;-78
2022/05/19 07:30:25;;;;;;;6.85;1.40;;;23.00;75.70;;;;;;5067598;28;20406;-79
2022/05/19 07:32:50;;;;;;;1.73;1.00;;;23.20;76.00;;;;;;5067065;28;20052;-77
2022/05/19 07:35:17;;;;;;;1.90;1.20;;;23.30;76.70;;;;;;5067528;28;20036;-79
2022/05/19 07:37:43;;;;;;;1.83;1.33;;;23.40;75.10;;;;;;5068595;28;20032;-78
2022/05/19 07:40:10;;;;;;;3.47;1.20;;;23.50;74.00;;;;;;5069143;28;20031;-79
2022/05/19 07:42:36;;;;;;;5.28;1.50;;;23.70;74.60;;;;;;5067497;28;20043;-78
2022/05/19 07:45:01;;;;;;;4.20;1.38;;;23.80;73.10;;;;;;5069234;28;20146;-77
2022/05/19 07:47:29;;;;;;;2.85;1.10;;;23.90;73.00;;;;;;5067089;28;20123;-78
2022/05/19 07:49:56;;;;;;;7.88;1.95;;;24.10;72.50;;;;;;5066777;28;20036;-82
2022/05/19 07:52:22;;;;;;;5.47;1.33;;;24.20;72.90;;;;;;5068329;28;20064;-80
2022/05/19 07:54:48;;;;;;;2.33;1.10;;;24.30;71.20;;;;;;5065322;28;20040;-80
2022/05/19 07:57:13;;;;;;;4.00;1.38;;;24.40;70.40;;;;;;5048460;28;20036;-81
2022/05/19 07:59:39;;;;;;;1.50;1.08;;;24.50;70.20;;;;;;5064868;28;20671;-80
2022/05/19 08:02:05;;;;;;;2.65;1.48;;;24.70;70.60;;;;;;5067606;28;20486;-81
2022/05/19 08:04:31;;;;;;;2.85;1.15;;;24.70;70.10;;;;;;5067545;28;20044;-81
2022/05/19 08:06:56;;;;;;;7.07;1.20;;;24.80;68.70;;;;;;5067788;28;20488;-80
2022/05/19 08:12:07;;;;;;;3.80;1.45;;;25.10;70.50;;;;;;5063340;28;20035;-81
2022/05/19 08:17:17;;;;;;;3.60;1.45;;;25.30;69.90;;;;;;5066722;28;20439;-83
2022/05/19 08:19:43;;;;;;;2.45;1.08;;;25.40;68.90;;;;;;5068512;28;20024;-81
2022/05/19 08:22:09;;;;;;;2.88;1.25;;;25.40;68.00;;;;;;5067901;28;20025;-79
2022/05/19 08:24:36;;;;;;;6.40;1.02;;;25.40;68.70;;;;;;5067995;28;20032;-80
2022/05/19 08:27:02;;;;;;;3.35;1.08;;;25.60;70.40;;;;;;5062371;28;20596;-80
2022/05/19 08:29:28;;;;;;;3.30;1.10;;;25.70;68.00;;;;;;5067833;28;20037;-81
2022/05/19 08:31:53;;;;;;;2.13;1.05;;;25.80;67.60;;;;;;5067651;28;20111;-79
2022/05/19 08:34:19;;;;;;;1.83;1.02;;;26.00;68.20;;;;;;5066805;28;20116;-82
2022/05/19 08:36:46;;;;;;;2.53;1.25;;;26.20;67.70;;;;;;5067209;28;20090;-80
2022/05/19 08:39:12;;;;;;;2.47;0.90;;;26.30;65.40;;;;;;5068404;28;20040;-81
2022/05/19 08:41:48;;;;;;;3.55;0.90;;;26.40;62.70;;;;;;5068115;28;20036;-81
2022/05/19 08:44:27;;;;;;;2.63;0.90;;;26.40;64.00;;;;;;5068754;28;20021;-83
2022/05/19 08:46:54;;;;;;;2.25;0.80;;;26.40;61.80;;;;;;5066008;28;20035;-81
2022/05/19 08:49:41;;;;;;;2.45;1.00;;;26.50;61.30;;;;;;5068376;28;20048;-80
2022/05/19 08:52:14;;;;;;;8.77;1.00;;;26.60;64.60;;;;;;5067889;28;20479;-81
2022/05/19 08:54:44;;;;;;;4.85;0.70;;;26.70;61.60;;;;;;5067378;28;20035;-79
2022/05/19 08:57:18;;;;;;;4.53;1.00;;;26.90;62.80;;;;;;5067641;28;20028;-80
2022/05/19 09:00:06;;;;;;;2.45;0.90;;;27.00;62.80;;;;;;5068115;28;20037;-81
2022/05/19 09:02:54;;;;;;;9.00;1.00;;;27.10;60.00;;;;;;5067017;28;20037;-81
2022/05/19 09:05:46;;;;;;;1.73;0.77;;;27.10;61.70;;;;;;5067619;28;20032;-81
2022/05/19 09:08:36;;;;;;;1.33;1.02;;;27.30;62.20;;;;;;5066833;28;20025;-81
2022/05/19 09:11:13;;;;;;;2.00;1.00;;;27.40;61.40;;;;;;5065971;28;20042;-79
2022/05/19 09:13:58;;;;;;;7.03;0.95;;;27.50;59.30;;;;;;5067279;28;20037;-80
2022/05/19 09:16:27;;;;;;;3.55;0.65;;;27.60;60.70;;;;;;5065777;28;20041;-83
2022/05/19 09:19:06;;;;;;;8.68;1.00;;;27.80;61.50;;;;;;5067791;28;20035;-84
2022/05/19 09:21:33;;;;;;;5.47;1.00;;;27.90;59.00;;;;;;5067321;28;20386;-81
2022/05/19 09:23:59;;;;;;;1.33;0.60;;;28.00;56.40;;;;;;5064744;28;20551;-82
2022/05/19 09:26:34;;;;;;;4.18;0.90;;;28.10;56.90;;;;;;5066487;28;20040;-82
2022/05/19 09:29:07;;;;;;;1.42;0.80;;;28.10;55.70;;;;;;5058608;28;20509;-83
2022/05/19 09:31:39;;;;;;;6.22;0.60;;;28.20;58.00;;;;;;5065546;28;20416;-81
2022/05/19 09:34:06;;;;;;;;;;;28.30;57.10;;;;;;5066188;28;20040;-81
2022/05/19 09:36:41;;;;;;;2.05;0.70;;;28.30;56.90;;;;;;5065079;28;19920;-84
2022/05/19 09:39:12;;;;;;;1.92;0.80;;;28.30;58.20;;;;;;5073179;28;20089;-81
2022/05/19 09:41:45;;;;;;;3.90;1.05;;;28.40;55.20;;;;;;5064717;28;20449;-84
2022/05/19 09:44:13;;;;;;;1.60;1.10;;;28.40;55.70;;;;;;5055128;28;20028;-84
2022/05/19 09:46:43;;;;;;;1.90;0.77;;;28.40;56.00;;;;;;5047257;28;20459;-84
2022/05/19 09:49:31;;;;;;;11.15;1.38;;;28.50;57.50;;;;;;5058883;28;20044;-82
2022/05/19 09:52:05;;;;;;;1.55;0.68;;;28.70;55.00;;;;;;5060830;28;20032;-83
2022/05/19 09:54:34;;;;;;;0.93;0.70;;;28.80;54.20;;;;;;5059938;28;20385;-82
2022/05/19 09:57:24;;;;;;;1.13;0.50;;;29.00;53.70;;;;;;5058463;28;20112;-80
2022/05/19 09:59:52;;;;;;;0.85;0.55;;;29.00;53.30;;;;;;5039540;28;20044;-81
2022/05/19 10:02:25;;;;;;;1.48;0.95;;;29.10;55.80;;;;;;5049303;28;20151;-82
2022/05/19 10:04:55;;;;;;;1.33;0.60;;;29.10;56.90;;;;;;5059319;28;20032;-82
2022/05/19 10:07:23;;;;;;;1.45;0.60;;;29.20;57.50;;;;;;5070097;28;20462;-80
2022/05/19 10:09:51;;;;;;;3.88;0.68;;;29.30;53.10;;;;;;5069756;28;20040;-82
2022/05/19 10:12:31;;;;;;;2.08;0.60;;;29.30;54.70;;;;;;5070120;28;20025;-82
2022/05/19 10:15:04;;;;;;;4.38;0.50;;;29.40;55.70;;;;;;5070327;28;20032;-83
2022/05/19 10:17:54;;;;;;;1.58;0.80;;;29.50;52.20;;;;;;5069512;28;20082;-78
2022/05/19 10:20:25;;;;;;;2.15;0.50;;;29.50;53.50;;;;;;5069083;28;20028;-78
2022/05/19 10:22:59;;;;;;;1.27;0.50;;;29.60;51.80;;;;;;5070384;28;20029;-80
2022/05/19 10:26:01;;;;;;;3.65;0.60;;;29.50;54.40;;;;;;5069153;28;20595;-81
2022/05/19 10:32:01;;;;;;;19.67;4.25;;;29.40;54.30;;;;;;5070376;28;20263;-78
2022/05/19 10:34:42;;;;;;;27.42;9.60;;;29.40;52.60;;;;;;5070285;28;20032;-78
2022/05/19 10:37:27;;;;;;;15.83;6.33;;;29.40;53.40;;;;;;5068670;28;20474;-80
2022/05/19 10:40:16;;;;;;;6.32;2.13;;;29.40;53.50;;;;;;5069819;28;20279;-79
2022/05/19 10:43:09;;;;;;;6.70;2.33;;;29.40;53.10;;;;;;5068822;28;20103;-75
2022/05/19 10:45:39;;;;;;;2.33;0.70;;;29.60;53.20;;;;;;5069444;28;20028;-80
2022/05/19 10:48:34;;;;;;;2.42;0.80;;;29.70;53.80;;;;;;5067889;28;20059;-77
2022/05/19 10:51:18;;;;;;;2.55;0.80;;;29.90;52.10;;;;;;5068513;28;20040;-76
2022/05/19 10:54:06;;;;;;;14.70;1.92;;;29.90;53.70;;;;;;5069981;28;20059;-75
2022/05/19 10:57:07;;;;;;;2.05;0.85;;;30.10;56.90;;;;;;5067296;28;20483;-78
2022/05/19 10:59:44;;;;;;;2.95;0.77;;;30.20;51.50;;;;;;5067842;28;20086;-80
2022/05/19 11:02:29;;;;;;;4.03;0.98;;;30.40;52.20;;;;;;5069551;28;20028;-79
2022/05/19 11:05:20;;;;;;;5.82;1.13;;;30.40;53.70;;;;;;5069428;28;20032;-80
2022/05/19 11:08:14;;;;;;;2.53;1.13;;;30.30;52.50;;;;;;5066885;28;20079;-82
2022/05/19 11:11:03;;;;;;;1.00;0.70;;;30.30;52.00;;;;;;5070670;28;20043;-82
2022/05/19 11:13:39;;;;;;;3.55;0.70;;;30.50;53.80;;;;;;5069326;28;20040;-81
2022/05/19 11:16:30;;;;;;;3.35;0.82;;;30.60;54.00;;;;;;5068560;28;20031;-81
2022/05/19 11:19:26;;;;;;;2.63;0.80;;;30.70;53.00;;;;;;5069072;28;20581;-81
2022/05/19 11:21:57;;;;;;;2.00;1.05;;;30.90;53.90;;;;;;5063667;28;20036;-80
2022/05/19 11:26:23;;;;;;;2.05;0.70;;;31.00;53.80;;;;;;5069441;28;20398;-80
2022/05/19 11:27:25;;;;;;;1.63;0.70;;;31.10;51.00;;;;;;5068363;28;20028;-80
2022/05/19 11:30:00;;;;;;;1.65;1.00;;;31.00;52.90;;;;;;5051625;28;20047;-80
2022/05/19 11:32:31;;;;;;;2.85;1.13;;;30.90;53.60;;;;;;5065004;28;20104;-81
2022/05/19 11:35:22;;;;;;;1.20;0.80;;;30.80;54.90;;;;;;5071959;28;20086;-80
2022/05/19 11:37:56;;;;;;;2.73;0.70;;;30.70;56.30;;;;;;5049507;28;20033;-81
2022/05/19 11:40:37;;;;;;;2.78;0.52;;;30.70;52.00;;;;;;5051086;28;20040;-80
2022/05/19 11:43:32;;;;;;;2.65;0.80;;;30.80;50.90;;;;;;5068164;28;20028;-81
2022/05/19 11:46:06;;;;;;;2.90;0.80;;;30.90;50.80;;;;;;5067054;28;20029;-81
2022/05/19 11:57:42;;;;;;;1.25;0.60;;;31.50;50.50;;;;;;5067165;28;20078;-81
2022/05/19 12:00:11;;;;;;;6.78;0.75;;;31.50;51.00;;;;;;5068939;28;20025;-81
2022/05/19 12:02:50;;;;;;;2.22;0.70;;;31.60;49.40;;;;;;5066987;28;20078;-82
2022/05/19 12:05:41;;;;;;;1.52;0.60;;;31.60;50.20;;;;;;5055956;28;20025;-81
2022/05/19 12:08:20;;;;;;;2.10;0.70;;;31.70;48.30;;;;;;5048226;28;20419;-81
2022/05/19 12:10:55;;;;;;;3.92;0.60;;;31.60;48.00;;;;;;5047861;28;20033;-80
2022/05/19 12:13:32;;;;;;;1.65;0.50;;;31.70;47.80;;;;;;5047507;28;20083;-83
2022/05/19 12:16:21;;;;;;;2.58;0.50;;;31.60;47.60;;;;;;5047644;28;20479;-82
2022/05/19 12:19:03;;;;;;;1.67;1.05;;;31.60;48.10;;;;;;5058408;28;20154;-82
2022/05/19 12:21:51;;;;;;;2.40;0.70;;;31.60;50.00;;;;;;5067236;28;20052;-82
2022/05/19 12:24:18;;;;;;;4.95;0.95;;;31.70;48.20;;;;;;5068342;28;20029;-81
2022/05/19 12:27:00;;;;;;;2.50;0.60;;;31.70;48.20;;;;;;5067197;28;20036;-80
2022/05/19 12:29:33;;;;;;;3.70;0.70;;;31.60;49.10;;;;;;5067988;28;20040;-79
2022/05/19 12:32:20;;;;;;;3.55;0.80;;;31.60;48.60;;;;;;5066924;28;20025;-80
2022/05/19 12:35:00;;;;;;;0.82;0.60;;;31.60;50.10;;;;;;5067313;28;20064;-80
2022/05/19 12:37:42;;;;;;;1.75;0.60;;;31.60;48.10;;;;;;5061844;28;20045;-80
2022/05/19 12:40:31;;;;;;;2.00;0.68;;;31.50;47.70;;;;;;5059052;28;20032;-80
2022/05/19 12:43:29;;;;;;;2.42;0.55;;;31.40;47.00;;;;;;5066895;28;20139;-80
2022/05/19 12:45:58;;;;;;;2.15;0.50;;;31.30;49.00;;;;;;5053976;28;20075;-80
2022/05/19 12:48:44;;;;;;;2.50;0.73;;;31.20;52.40;;;;;;5054511;28;20028;-80
2022/05/19 12:51:15;;;;;;;1.80;0.60;;;31.10;51.90;;;;;;5063261;28;20041;-80
2022/05/19 12:53:49;;;;;;;2.80;0.60;;;31.10;48.70;;;;;;5068157;28;20132;-80
2022/05/19 12:56:41;;;;;;;2.53;0.68;;;31.10;49.70;;;;;;5066029;28;20024;-81
2022/05/19 12:59:46;;;;;;;3.67;0.60;;;31.10;49.50;;;;;;5058932;28;20044;-81
2022/05/19 13:02:18;;;;;;;1.50;0.60;;;31.10;51.00;;;;;;5062216;28;20045;-80
2022/05/19 13:04:51;;;;;;;1.50;0.50;;;31.10;50.90;;;;;;5068001;28;20413;-81
2022/05/19 13:07:36;;;;;;;3.22;0.65;;;31.30;49.30;;;;;;5067215;28;20063;-82
2022/05/19 13:10:15;;;;;;;0.90;0.80;;;31.50;52.20;;;;;;5067914;28;20037;-81
2022/05/19 13:12:49;;;;;;;4.40;0.57;;;31.70;49.40;;;;;;5067122;28;20029;-81
2022/05/19 13:15:24;;;;;;;2.58;0.80;;;32.00;49.00;;;;;;5065513;28;20032;-81
2022/05/19 13:17:51;;;;;;;2.20;0.70;;;32.20;49.40;;;;;;5067977;28;20028;-80
2022/05/19 13:20:24;;;;;;;1.67;0.63;;;32.30;48.70;;;;;;5066123;28;20051;-81
2022/05/19 13:22:55;;;;;;;3.30;0.73;;;32.40;50.40;;;;;;5070371;28;20488;-81
2022/05/19 13:25:21;;;;;;;3.00;0.70;;;32.50;48.20;;;;;;5070348;28;20035;-81
2022/05/19 13:30:43;;;;;;;2.63;0.60;;;32.70;48.40;;;;;;5062128;28;20040;-82
2022/05/19 13:33:19;;;;;;;4.00;0.75;;;32.80;49.10;;;;;;5071286;28;20040;-81
2022/05/19 13:35:45;;;;;;;2.78;0.50;;;32.90;50.00;;;;;;5071027;28;20041;-83